Time;durP1;ratioP1;P1;durP2;ratioP2;P2;SDS_P1;SDS_P2;PMS_P1;PMS_P2;Temp;Humidity;BMP_temperature;BMP_pressure;BME280_temperature;BME280_humidity;BME280_pressure;Samples;Min_cycle;Max_cycle;Signal;HPM_P1;HPM_P2
2022/06/17 00:02:04;;;;;;;10.35;6.97;;;;;;;;;;5064587;28;20037;-73
2022/06/17 00:04:30;;;;;;;14.07;7.35;;;;;;;;;;5057554;28;20041;-73
2022/06/17 00:07:04;;;;;;;11.10;7.45;;;;;;;;;;5069432;28;20048;-73
2022/06/17 00:09:31;;;;;;;11.48;6.88;;;;;;;;;;5070288;28;20033;-73
2022/06/17 00:11:57;;;;;;;10.77;7.55;;;;;;;;;;5085298;28;20477;-73
2022/06/17 00:14:25;;;;;;;8.77;6.85;;;;;;;;;;5043834;28;20057;-73
2022/06/17 00:16:52;;;;;;;10.48;6.88;;;;;;;;;;5070105;28;20049;-73
2022/06/17 00:19:18;;;;;;;9.23;6.53;;;;;;;;;;5070372;28;20048;-73
2022/06/17 00:21:46;;;;;;;10.00;7.10;;;;;;;;;;5056476;28;20523;-73
2022/06/17 00:24:20;;;;;;;9.60;6.72;;;;;;;;;;5058358;28;20036;-73
2022/06/17 00:26:47;;;;;;;10.57;6.90;;;;;;;;;;5071686;28;20492;-73
2022/06/17 00:29:14;;;;;;;11.65;6.85;;;;;;;;;;5066244;28;20044;-73
2022/06/17 00:31:41;;;;;;;10.23;7.50;;;;;;;;;;5054011;28;20041;-74
2022/06/17 00:34:07;;;;;;;7.93;6.70;;;;;;;;;;5056607;28;20055;-74
2022/06/17 00:36:34;;;;;;;13.25;7.15;;;;;;;;;;5053506;28;20072;-73
2022/06/17 00:39:00;;;;;;;12.32;7.50;;;;;;;;;;5069998;28;20127;-73
2022/06/17 00:41:29;;;;;;;10.75;7.32;;;;;;;;;;5066677;28;20057;-73
2022/06/17 00:43:55;;;;;;;12.38;7.53;;;;;;;;;;5055802;28;20049;-73
2022/06/17 00:46:35;;;;;;;13.43;7.25;;;;;;;;;;5069922;28;20132;-73
2022/06/17 00:49:01;;;;;;;9.35;7.05;;;;;;;;;;5069996;28;20036;-73
2022/06/17 00:51:30;;;;;;;10.10;7.38;;;;;;;;;;5069689;28;20073;-73
2022/06/17 00:53:59;;;;;;;9.80;7.20;;;;;;;;;;5058080;28;20044;-72
2022/06/17 00:56:31;;;;;;;11.13;7.20;;;;;;;;;;5055717;28;20045;-73
2022/06/17 00:59:07;;;;;;;12.30;7.93;;;;;;;;;;5073727;28;20446;-73
2022/06/17 01:01:46;;;;;;;11.05;7.50;;;;;;;;;;5073695;28;20165;-73
2022/06/17 01:04:12;;;;;;;10.65;7.15;;;;;;;;;;5063045;28;20049;-73
2022/06/17 01:06:41;;;;;;;11.18;7.30;;;;;;;;;;5070068;28;20036;-73
2022/06/17 01:12:02;;;;;;;12.70;7.45;;;;;;;;;;5073426;28;20036;-73
2022/06/17 01:14:29;;;;;;;10.02;6.80;;;;;;;;;;5067792;28;20397;-73
2022/06/17 01:16:55;;;;;;;12.20;7.25;;;;;;;;;;5070496;28;20049;-72
2022/06/17 01:19:28;;;;;;;9.27;7.05;;;;;;;;;;5073038;28;20040;-73
2022/06/17 01:22:10;;;;;;;12.27;7.30;;;;;;;;;;5058463;28;20040;-73
2022/06/17 01:24:36;;;;;;;10.10;6.72;;;;;;;;;;5073428;28;20048;-72
2022/06/17 01:27:03;;;;;;;9.43;7.00;;;;;;;;;;5056304;28;20040;-73
2022/06/17 01:29:30;;;;;;;8.57;6.47;;;;;;;;;;5066669;28;20033;-73
2022/06/17 01:31:57;;;;;;;10.70;6.63;;;;;;;;;;5053627;28;20052;-74
2022/06/17 01:34:24;;;;;;;10.38;6.55;;;;;;;;;;5072778;28;20119;-73
2022/06/17 01:36:50;;;;;;;11.93;6.85;;;;;;;;;;5060879;28;20043;-74
2022/06/17 01:39:17;;;;;;;10.55;6.95;;;;;;;;;;5071686;28;20084;-73
2022/06/17 01:41:44;;;;;;;9.80;6.82;;;;;;;;;;5065396;28;20393;-73
2022/06/17 01:44:17;;;;;;;12.82;6.90;;;;;;;;;;5070048;28;20055;-73
2022/06/17 01:46:44;;;;;;;9.13;6.60;;;;;;;;;;5065738;28;20116;-74
2022/06/17 01:49:14;;;;;;;11.20;6.97;;;;;;;;;;5069292;28;20047;-73
2022/06/17 01:51:42;;;;;;;9.40;6.70;;;;;;;;;;5069370;28;20385;-73
2022/06/17 01:54:11;;;;;;;10.95;7.00;;;;;;;;;;5056332;28;20539;-73
2022/06/17 01:56:39;;;;;;;10.35;7.65;;;;;;;;;;5070543;28;20048;-73
2022/06/17 01:59:07;;;;;;;11.60;7.47;;;;;;;;;;5050815;28;20033;-73
2022/06/17 02:01:35;;;;;;;10.70;7.47;;;;;;;;;;5063446;28;20052;-74
2022/06/17 02:04:10;;;;;;;11.70;7.40;;;;;;;;;;5047346;28;20051;-75
2022/06/17 02:06:36;;;;;;;12.30;7.20;;;;;;;;;;5071469;28;20051;-75
2022/06/17 02:09:03;;;;;;;9.00;6.72;;;;;;;;;;5066755;28;20291;-73
2022/06/17 02:11:29;;;;;;;11.00;7.57;;;;;;;;;;5072356;28;20045;-73
2022/06/17 02:13:55;;;;;;;13.93;8.10;;;;;;;;;;5043994;28;20158;-73
2022/06/17 02:16:21;;;;;;;11.45;8.10;;;;;;;;;;5052326;28;20420;-73
2022/06/17 02:18:48;;;;;;;13.80;8.55;;;;;;;;;;5103467;28;20051;-73
2022/06/17 02:21:17;;;;;;;13.85;8.75;;;;;;;;;;5071864;28;20051;-73
2022/06/17 02:23:44;;;;;;;12.73;9.00;;;;;;;;;;5065345;28;20036;-73
2022/06/17 02:26:10;;;;;;;11.60;8.30;;;;;;;;;;5065624;28;20056;-73
2022/06/17 02:28:37;;;;;;;11.68;8.40;;;;;;;;;;5066499;28;20033;-73
2022/06/17 02:31:04;;;;;;;13.40;8.68;;;;;;;;;;5054560;28;20481;-73
2022/06/17 02:33:31;;;;;;;12.77;9.23;;;;;;;;;;5069651;28;20111;-73
2022/06/17 02:35:57;;;;;;;12.82;8.75;;;;;;;;;;5061698;28;20441;-73
2022/06/17 02:38:25;;;;;;;17.75;9.13;;;;;;;;;;5072716;28;20485;-73
2022/06/17 02:40:53;;;;;;;14.30;8.70;;;;;;;;;;5059883;28;20075;-73
2022/06/17 02:43:21;;;;;;;14.18;9.35;;;;;;;;;;5071510;28;20099;-73
2022/06/17 02:45:50;;;;;;;12.18;8.90;;;;;;;;;;5062864;28;20118;-73
2022/06/17 02:48:25;;;;;;;11.60;9.27;;;;;;;;;;5072133;28;20496;-73
2022/06/17 02:50:52;;;;;;;13.43;9.00;;;;;;;;;;5062553;28;20033;-73
2022/06/17 02:53:21;;;;;;;13.88;9.35;;;;;;;;;;5071633;28;20332;-73
2022/06/17 02:55:47;;;;;;;13.57;9.13;;;;;;;;;;5064827;28;20082;-74
2022/06/17 02:58:28;;;;;;;12.07;9.00;;;;;;;;;;5071609;28;20036;-73
2022/06/17 03:00:56;;;;;;;16.90;9.88;;;;;;;;;;5065015;28;20048;-73
2022/06/17 03:03:22;;;;;;;16.15;9.85;;;;;;;;;;5071318;28;20045;-73
2022/06/17 03:05:48;;;;;;;14.98;9.73;;;;;;;;;;5068643;28;20113;-73
2022/06/17 03:08:21;;;;;;;14.80;9.63;;;;;;;;;;5072826;28;20028;-73
2022/06/17 03:10:47;;;;;;;14.25;9.40;;;;;;;;;;5065975;28;20131;-73
2022/06/17 03:13:31;;;;;;;14.15;10.00;;;;;;;;;;5105116;28;20047;-73
2022/06/17 03:15:59;;;;;;;14.50;10.15;;;;;;;;;;5068778;28;20098;-73
2022/06/17 03:18:27;;;;;;;15.52;10.70;;;;;;;;;;5070766;28;20097;-73
2022/06/17 03:20:54;;;;;;;14.63;10.25;;;;;;;;;;5068050;28;20119;-73
2022/06/17 03:23:23;;;;;;;14.60;10.48;;;;;;;;;;5041267;28;20045;-73
2022/06/17 03:26:04;;;;;;;15.50;10.75;;;;;;;;;;5070732;28;20093;-73
2022/06/17 03:28:41;;;;;;;16.23;10.50;;;;;;;;;;5059040;28;20497;-73
2022/06/17 03:31:10;;;;;;;16.25;10.57;;;;;;;;;;5065775;28;20032;-73
2022/06/17 03:33:44;;;;;;;14.70;10.30;;;;;;;;;;5057686;28;20116;-73
2022/06/17 03:36:16;;;;;;;12.80;10.23;;;;;;;;;;5070756;28;20066;-73
2022/06/17 03:38:45;;;;;;;14.52;10.85;;;;;;;;;;5059561;28;20500;-73
2022/06/17 03:41:21;;;;;;;17.02;11.20;;;;;;;;;;5071978;28;20068;-73
2022/06/17 03:43:54;;;;;;;16.25;10.75;;;;;;;;;;5087842;28;20055;-74
2022/06/17 03:46:23;;;;;;;16.42;10.93;;;;;;;;;;5070825;28;20072;-74
2022/06/17 03:48:53;;;;;;;15.48;11.38;;;;;;;;;;5045394;28;20040;-74
2022/06/17 03:51:21;;;;;;;18.23;12.00;;;;;;;;;;5053292;28;20100;-73
2022/06/17 03:53:48;;;;;;;14.65;10.93;;;;;;;;;;5049747;28;20515;-74
2022/06/17 03:56:17;;;;;;;17.80;12.07;;;;;;;;;;5050733;28;20067;-74
2022/06/17 03:58:43;;;;;;;18.58;12.05;;;;;;;;;;5051197;28;20040;-74
2022/06/17 04:01:28;;;;;;;17.60;11.93;;;;;;;;;;5045905;28;20096;-72
2022/06/17 04:03:56;;;;;;;17.63;12.38;;;;;;;;;;5050139;28;20120;-72
2022/06/17 04:06:28;;;;;;;17.23;12.48;;;;;;;;;;5050922;28;20037;-71
2022/06/17 04:09:01;;;;;;;18.00;11.70;;;;;;;;;;5058037;28;20037;-72
2022/06/17 04:11:34;;;;;;;16.90;11.80;;;;;;;;;;5044564;28;20040;-72
2022/06/17 04:14:03;;;;;;;15.75;11.93;;;;;;;;;;5064644;28;20128;-72
2022/06/17 04:16:35;;;;;;;14.90;11.90;;;;;;;;;;5054068;28;20075;-71
2022/06/17 04:19:19;;;;;;;19.08;12.45;;;;;;;;;;5063767;28;20044;-71
2022/06/17 04:21:46;;;;;;;16.10;12.10;;;;;;;;;;5049489;28;20033;-71
2022/06/17 04:24:19;;;;;;;18.75;12.30;;;;;;;;;;5067314;28;20041;-71
2022/06/17 04:26:48;;;;;;;16.98;11.75;;;;;;;;;;5043872;28;20424;-71
2022/06/17 04:29:19;;;;;;;16.90;11.13;;;;;;;;;;5066222;28;20040;-72
2022/06/17 04:31:47;;;;;;;16.02;11.05;;;;;;;;;;5042350;28;20072;-71
2022/06/17 04:34:15;;;;;;;13.90;11.07;;;;;;;;;;5073837;28;20124;-71
2022/06/17 04:36:44;;;;;;;15.88;11.55;;;;;;;;;;5059316;28;20128;-71
2022/06/17 04:39:20;;;;;;;17.63;11.02;;;;;;;;;;5075441;28;20043;-71
2022/06/17 04:41:46;;;;;;;14.18;11.43;;;;;;;;;;5063284;28;20048;-72
2022/06/17 04:44:14;;;;;;;15.43;11.40;;;;;;;;;;5073789;28;20053;-71
2022/06/17 04:46:55;;;;;;;15.88;11.45;;;;;;;;;;5063313;28;20041;-72
2022/06/17 04:49:22;;;;;;;17.35;10.75;;;;;;;;;;5075431;28;20040;-71
2022/06/17 04:51:49;;;;;;;17.10;11.85;;;;;;;;;;5047046;28;20041;-71
2022/06/17 04:54:15;;;;;;;16.27;11.85;;;;;;;;;;5075452;28;20052;-72
2022/06/17 04:56:49;;;;;;;13.23;10.95;;;;;;;;;;5064866;28;20040;-72
2022/06/17 04:59:30;;;;;;;15.32;10.77;;;;;;;;;;5075710;28;20036;-71
2022/06/17 05:01:57;;;;;;;16.52;10.32;;;;;;;;;;5066658;28;20045;-71
2022/06/17 05:04:24;;;;;;;14.52;10.90;;;;;;;;;;5073713;28;20044;-71
2022/06/17 05:06:50;;;;;;;13.98;11.00;;;;;;;;;;5066825;28;20102;-71
2022/06/17 05:09:25;;;;;;;16.17;11.05;;;;;;;;;;5073991;28;20040;-72
2022/06/17 05:12:12;;;;;;;16.50;11.85;;;;;;;;;;5069433;28;20516;-72
2022/06/17 05:14:38;;;;;;;;;;;;;;;;;;5062675;28;20507;-72
2022/06/17 05:17:04;;;;;;;14.18;10.50;;;;;;;;;;5063345;28;19917;-71
2022/06/17 05:19:30;;;;;;;14.45;11.35;;;;;;;;;;5053682;28;20037;-71
2022/06/17 05:21:56;;;;;;;16.92;12.27;;;;;;;;;;5053122;28;20086;-72
2022/06/17 05:24:22;;;;;;;14.38;10.88;;;;;;;;;;5036731;28;20512;-71
2022/06/17 05:26:48;;;;;;;14.32;11.27;;;;;;;;;;5054489;28;20040;-71
2022/06/17 05:29:14;;;;;;;14.45;11.73;;;;;;;;;;5053222;28;20033;-72
2022/06/17 05:31:40;;;;;;;15.18;11.38;;;;;;;;;;5052789;28;20484;-72
2022/06/17 05:34:06;;;;;;;16.00;11.50;;;;;;;;;;5053152;28;20401;-71
2022/06/17 05:36:33;;;;;;;16.05;11.43;;;;;;;;;;5053487;28;20041;-72
2022/06/17 05:39:02;;;;;;;18.38;12.05;;;;;;;;;;5053837;28;20401;-71
2022/06/17 05:41:28;;;;;;;13.40;11.30;;;;;;;;;;5054313;28;20115;-72
2022/06/17 05:43:54;;;;;;;17.52;12.30;;;;;;;;;;5051493;28;20080;-74
2022/06/17 05:46:21;;;;;;;15.93;11.07;;;;;;;;;;5053066;28;20043;-74
2022/06/17 05:48:47;;;;;;;17.83;11.70;;;;;;;;;;5068982;28;20040;-74
2022/06/17 05:51:13;;;;;;;14.90;11.43;;;;;;;;;;5053987;28;20108;-74
2022/06/17 05:53:39;;;;;;;13.98;11.65;;;;;;;;;;5052827;28;20036;-74
2022/06/17 05:56:05;;;;;;;12.85;10.60;;;;;;;;;;5052463;28;20040;-73
2022/06/17 05:58:31;;;;;;;17.70;11.15;;;;;;;;;;5036301;28;20405;-75
2022/06/17 06:00:57;;;;;;;14.32;11.40;;;;;;;;;;5052263;28;20045;-77
2022/06/17 06:03:25;;;;;;;16.83;10.95;;;;;;;;;;5052210;28;20044;-77
2022/06/17 06:05:51;;;;;;;14.02;11.13;;;;;;;;;;5051703;28;20040;-76
2022/06/17 06:08:17;;;;;;;13.82;11.27;;;;;;;;;;5061310;28;20041;-76
2022/06/17 06:10:43;;;;;;;13.18;10.65;;;;;;;;;;5043720;28;20051;-76
2022/06/17 06:13:14;;;;;;;14.75;11.07;;;;;;;;;;5056142;28;20507;-77
2022/06/17 06:15:42;;;;;;;13.90;10.20;;;;;;;;;;5096851;28;20037;-76
2022/06/17 06:18:09;;;;;;;24.35;11.20;;;;;;;;;;5073522;28;20064;-77
2022/06/17 06:20:35;;;;;;;15.25;11.20;;;;;;;;;;5048369;28;20392;-77
2022/06/17 06:23:01;;;;;;;13.85;10.73;;;;;;;;;;5062333;28;20507;-76
2022/06/17 06:25:28;;;;;;;14.52;10.95;;;;;;;;;;5069147;28;21249;-77
2022/06/17 06:27:54;;;;;;;15.10;10.57;;;;;;;;;;5069553;28;20036;-76
2022/06/17 06:30:23;;;;;;;15.50;10.75;;;;;;;;;;5066223;28;20040;-77
2022/06/17 06:32:50;;;;;;;17.38;11.05;;;;;;;;;;5061361;28;20065;-75
2022/06/17 06:35:17;;;;;;;16.15;10.77;;;;;;;;;;5049159;28;20065;-75
2022/06/17 06:37:43;;;;;;;17.27;10.90;;;;;;;;;;5035124;28;20055;-75
2022/06/17 06:40:10;;;;;;;12.68;10.50;;;;;;;;;;5051692;28;20095;-75
2022/06/17 06:42:36;;;;;;;16.52;10.55;;;;;;;;;;5035811;28;20041;-75
2022/06/17 06:45:02;;;;;;;17.95;10.75;;;;;;;;;;5034968;28;20052;-75
2022/06/17 06:47:28;;;;;;;14.32;10.40;;;;;;;;;;5051932;28;20051;-75
2022/06/17 06:49:54;;;;;;;15.18;11.00;;;;;;;;;;5049490;28;20037;-75
2022/06/17 06:52:20;;;;;;;14.48;10.70;;;;;;;;;;5050905;28;20099;-75
2022/06/17 06:54:46;;;;;;;14.90;10.20;;;;;;;;;;5051817;28;20068;-75
2022/06/17 06:57:16;;;;;;;16.73;10.70;;;;;;;;;;5035111;28;20524;-75
2022/06/17 06:59:42;;;;;;;14.93;10.35;;;;;;;;;;5052135;28;20045;-75
2022/06/17 07:02:09;;;;;;;15.05;9.95;;;;;;;;;;5033825;28;20060;-75
2022/06/17 07:04:35;;;;;;;12.48;10.40;;;;;;;;;;5050516;28;20112;-76
2022/06/17 07:07:01;;;;;;;14.85;10.30;;;;;;;;;;5052608;28;20058;-75
2022/06/17 07:09:27;;;;;;;12.77;9.52;;;;;;;;;;5040800;28;20036;-75
2022/06/17 07:11:53;;;;;;;14.60;8.80;;;;;;;;;;5071231;28;20036;-75
2022/06/17 07:14:19;;;;;;;12.95;9.20;;;;;;;;;;5105289;28;20088;-75
2022/06/17 07:16:45;;;;;;;12.05;9.02;;;;;;;;;;5054744;28;20043;-75
2022/06/17 07:19:16;;;;;;;14.20;9.02;;;;;;;;;;5060488;28;20055;-75
2022/06/17 07:21:42;;;;;;;12.60;8.98;;;;;;;;;;5072812;28;20039;-75
2022/06/17 07:24:08;;;;;;;11.88;8.85;;;;;;;;;;5054454;28;20124;-75
2022/06/17 07:26:35;;;;;;;13.57;8.77;;;;;;;;;;5071254;28;20372;-75
2022/06/17 07:29:01;;;;;;;12.68;8.77;;;;;;;;;;5065987;28;21641;-76
2022/06/17 07:31:28;;;;;;;11.77;8.30;;;;;;;;;;5068689;28;20377;-75
2022/06/17 07:33:56;;;;;;;10.40;8.43;;;;;;;;;;5070490;28;20120;-75
2022/06/17 07:42:00;;;;;;;;;;;;;;;;;;5082900;28;20076;-75
2022/06/17 07:44:26;;;;;;;;;;;;;;;;;;5051474;28;19921;-76
2022/06/17 07:46:52;;;;;;;9.65;7.13;;;;;;;;;;5050637;28;19924;-75
2022/06/17 07:49:18;;;;;;;9.52;6.97;;;;;;;;;;5050796;28;20041;-76
2022/06/17 07:51:44;;;;;;;10.48;6.95;;;;;;;;;;5034315;28;20540;-76
2022/06/17 07:54:10;;;;;;;9.73;7.03;;;;;;;;;;5051036;28;20473;-75
2022/06/17 07:56:36;;;;;;;10.60;7.60;;;;;;;;;;5067662;28;20057;-75
2022/06/17 07:59:03;;;;;;;11.15;7.30;;;;;;;;;;5050075;28;20078;-75
2022/06/17 08:01:29;;;;;;;10.95;6.75;;;;;;;;;;5033643;28;20033;-75
2022/06/17 08:03:55;;;;;;;11.02;7.20;;;;;;;;;;5034044;28;20424;-75
2022/06/17 08:06:22;;;;;;;10.63;6.75;;;;;;;;;;5050795;28;20091;-75
2022/06/17 08:08:48;;;;;;;9.35;5.97;;;;;;;;;;5080367;28;20032;-75
2022/06/17 08:11:14;;;;;;;9.75;6.75;;;;;;;;;;5065915;28;20033;-75
2022/06/17 08:13:41;;;;;;;8.93;6.10;;;;;;;;;;5059167;28;20055;-75
2022/06/17 08:16:09;;;;;;;9.80;6.38;;;;;;;;;;5067943;28;20036;-75
2022/06/17 08:18:35;;;;;;;11.52;6.70;;;;;;;;;;5071720;28;20068;-75
2022/06/17 08:21:01;;;;;;;8.05;5.70;;;;;;;;;;5070197;28;20040;-75
2022/06/17 08:23:27;;;;;;;9.95;6.18;;;;;;;;;;5043495;28;20032;-76
2022/06/17 08:25:55;;;;;;;9.90;6.05;;;;;;;;;;5050663;28;20366;-75
2022/06/17 08:28:21;;;;;;;8.68;6.05;;;;;;;;;;5071760;28;20032;-76
2022/06/17 08:30:51;;;;;;;9.02;6.30;;;;;;;;;;5066135;28;20040;-75
2022/06/17 08:33:25;;;;;;;8.20;5.35;;;;;;;;;;5061816;28;20122;-76
2022/06/17 08:35:51;;;;;;;10.85;6.45;;;;;;;;;;5057700;28;20044;-76
2022/06/17 08:38:23;;;;;;;9.35;5.35;;;;;;;;;;5067566;28;20032;-76
2022/06/17 08:40:55;;;;;;;8.95;6.10;;;;;;;;;;5071561;28;20040;-76
2022/06/17 08:43:27;;;;;;;10.57;6.82;;;;;;;;;;5063666;28;20459;-75
2022/06/17 08:46:14;;;;;;;9.02;6.22;;;;;;;;;;5058696;28;20140;-75
2022/06/17 08:48:49;;;;;;;7.47;5.57;;;;;;;;;;5044331;28;20474;-74
2022/06/17 08:51:43;;;;;;;9.38;6.00;;;;;;;;;;5048411;28;20044;-75
2022/06/17 08:54:16;;;;;;;8.15;5.30;;;;;;;;;;5073708;28;20080;-75
2022/06/17 08:56:47;;;;;;;9.65;5.72;;;;;;;;;;5049426;28;20045;-75
2022/06/17 08:59:28;;;;;;;7.57;5.47;;;;;;;;;;5049824;28;20052;-75
2022/06/17 09:02:04;;;;;;;7.45;5.40;;;;;;;;;;5049846;28;20051;-75
2022/06/17 09:04:33;;;;;;;7.72;5.00;;;;;;;;;;5049692;28;20064;-75
2022/06/17 09:06:59;;;;;;;8.98;4.97;;;;;;;;;;5049631;28;20037;-74
2022/06/17 09:09:25;;;;;;;5.95;4.70;;;;;;;;;;5051378;28;20068;-75
2022/06/17 09:12:10;;;;;;;6.85;4.80;;;;;;;;;;5071212;28;20044;-74
2022/06/17 09:14:47;;;;;;;6.93;4.90;;;;;;;;;;5068692;28;20048;-75
2022/06/17 09:17:18;;;;;;;7.43;4.80;;;;;;;;;;5050968;28;20131;-75
2022/06/17 09:19:45;;;;;;;7.72;4.75;;;;;;;;;;5053911;28;20040;-75
2022/06/17 09:22:34;;;;;;;10.35;5.80;;;;;;;;;;5072639;28;20097;-75
2022/06/17 09:25:06;;;;;;;11.10;5.05;;;;;;;;;;5068043;28;20041;-75
2022/06/17 09:27:36;;;;;;;7.38;5.30;;;;;;;;;;5049780;28;20041;-74
2022/06/17 09:30:04;;;;;;;11.45;5.32;;;;;;;;;;5050997;28;20037;-74
2022/06/17 09:32:38;;;;;;;16.40;5.30;;;;;;;;;;5072287;28;20502;-75
2022/06/17 09:35:07;;;;;;;8.57;4.45;;;;;;;;;;5071190;28;20055;-75
2022/06/17 09:37:44;;;;;;;6.65;4.10;;;;;;;;;;5052552;28;20056;-75
2022/06/17 09:40:15;;;;;;;7.97;4.65;;;;;;;;;;5071844;28;20040;-75
2022/06/17 09:42:43;;;;;;;6.93;4.63;;;;;;;;;;5072540;28;20484;-75
2022/06/17 09:45:13;;;;;;;7.80;4.63;;;;;;;;;;5072603;28;20055;-74
2022/06/17 09:47:52;;;;;;;9.63;4.82;;;;;;;;;;5041014;28;20461;-74
2022/06/17 09:50:30;;;;;;;6.45;4.20;;;;;;;;;;5071171;28;20036;-75
2022/06/17 09:53:04;;;;;;;7.32;4.00;;;;;;;;;;5073047;28;20049;-74
2022/06/17 09:55:48;;;;;;;9.87;4.07;;;;;;;;;;5073134;28;20048;-75
2022/06/17 09:58:25;;;;;;;9.00;4.05;;;;;;;;;;5042233;28;20060;-75
2022/06/17 10:00:56;;;;;;;6.03;4.53;;;;;;;;;;5065053;28;20045;-76
2022/06/17 10:03:26;;;;;;;8.48;4.18;;;;;;;;;;5072670;28;20114;-76
2022/06/17 10:06:16;;;;;;;6.18;3.65;;;;;;;;;;5049729;28;20029;-75
2022/06/17 10:09:00;;;;;;;5.30;3.38;;;;;;;;;;5050852;28;20059;-75
2022/06/17 10:11:32;;;;;;;7.93;3.80;;;;;;;;;;5046131;28;20644;-75
2022/06/17 10:14:17;;;;;;;6.03;3.15;;;;;;;;;;5072254;28;20040;-75
2022/06/17 10:19:50;;;;;;;5.20;3.50;;;;;;;;;;5061523;28;20071;-76
2022/06/17 10:22:16;;;;;;;;;;;;;;;;;;5072435;28;20048;-76
2022/06/17 10:24:57;;;;;;;5.25;3.13;;;;;;;;;;5072224;28;19927;-76
2022/06/17 10:27:26;;;;;;;5.88;3.10;;;;;;;;;;5072335;28;20041;-76
2022/06/17 10:30:04;;;;;;;6.40;3.58;;;;;;;;;;5058215;28;20075;-75
2022/06/17 10:32:32;;;;;;;6.07;3.28;;;;;;;;;;5071894;28;20043;-76
2022/06/17 10:35:01;;;;;;;6.38;3.55;;;;;;;;;;5071831;28;20110;-75
2022/06/17 10:37:27;;;;;;;4.47;3.30;;;;;;;;;;5072084;28;20063;-75
2022/06/17 10:39:54;;;;;;;4.57;3.35;;;;;;;;;;5061939;28;20467;-77
2022/06/17 10:42:20;;;;;;;8.32;3.88;;;;;;;;;;5055162;28;20085;-77
2022/06/17 10:44:51;;;;;;;6.43;3.70;;;;;;;;;;5038798;28;20500;-77
2022/06/17 10:47:17;;;;;;;5.78;3.17;;;;;;;;;;5047478;28;20040;-77
2022/06/17 10:49:46;;;;;;;8.23;3.58;;;;;;;;;;5058881;28;20109;-76
2022/06/17 10:52:20;;;;;;;5.78;2.90;;;;;;;;;;5074469;28;20123;-77
2022/06/17 10:54:47;;;;;;;5.97;3.50;;;;;;;;;;5072573;28;20040;-77
2022/06/17 10:57:22;;;;;;;7.32;3.10;;;;;;;;;;5073242;28;20036;-78
2022/06/17 10:59:48;;;;;;;5.90;3.80;;;;;;;;;;5068271;28;20558;-76
2022/06/17 11:02:35;;;;;;;6.32;4.05;;;;;;;;;;5042762;28;20063;-76
2022/06/17 11:05:03;;;;;;;8.88;4.28;;;;;;;;;;5071526;28;20480;-76
2022/06/17 11:07:30;;;;;;;7.95;4.35;;;;;;;;;;5071073;28;20435;-77
2022/06/17 11:09:57;;;;;;;7.43;4.07;;;;;;;;;;5071565;28;20388;-78
2022/06/17 11:12:27;;;;;;;6.35;3.72;;;;;;;;;;5053236;28;20052;-78
2022/06/17 11:14:55;;;;;;;6.20;3.72;;;;;;;;;;5071359;28;20094;-76
2022/06/17 11:17:30;;;;;;;9.88;4.13;;;;;;;;;;5072214;28;20378;-76
2022/06/17 11:19:58;;;;;;;5.93;2.83;;;;;;;;;;5054162;28;20512;-77
2022/06/17 11:22:47;;;;;;;5.25;3.28;;;;;;;;;;5056779;28;20127;-77
2022/06/17 11:25:22;;;;;;;8.38;3.78;;;;;;;;;;5069014;28;20058;-75
2022/06/17 11:27:48;;;;;;;;;;;;;;;;;;5072922;28;20436;-74
2022/06/17 11:30:25;;;;;;;6.03;3.67;;;;;;;;;;5061985;28;19916;-75
2022/06/17 11:32:52;;;;;;;5.80;3.83;;;;;;;;;;5059176;28;20059;-75
2022/06/17 11:35:20;;;;;;;6.57;3.60;;;;;;;;;;5051465;28;20111;-76
2022/06/17 11:37:47;;;;;;;7.20;3.40;;;;;;;;;;5070865;28;20051;-76
2022/06/17 11:40:21;;;;;;;6.15;3.42;;;;;;;;;;5071069;28;20037;-76
2022/06/17 11:42:49;;;;;;;8.85;3.55;;;;;;;;;;5044465;28;20076;-76
2022/06/17 11:45:17;;;;;;;7.22;3.80;;;;;;;;;;5060595;28;20063;-76
2022/06/17 11:47:47;;;;;;;8.25;3.72;;;;;;;;;;5070485;28;20082;-75
2022/06/17 11:50:23;;;;;;;5.78;2.97;;;;;;;;;;5070615;28;20071;-75
2022/06/17 11:52:50;;;;;;;6.40;3.53;;;;;;;;;;5065181;28;20477;-74
2022/06/17 11:55:16;;;;;;;6.72;3.28;;;;;;;;;;5047884;28;20442;-76
2022/06/17 11:57:43;;;;;;;8.82;3.35;;;;;;;;;;5070045;28;20040;-75
2022/06/17 12:00:18;;;;;;;9.00;3.03;;;;;;;;;;5070337;28;20127;-76
2022/06/17 12:02:55;;;;;;;6.00;3.00;;;;;;;;;;5068233;28;20041;-77
2022/06/17 12:05:23;;;;;;;5.47;3.40;;;;;;;;;;5027576;28;20049;-75
2022/06/17 12:08:09;;;;;;;6.07;2.65;;;;;;;;;;5070005;28;20080;-76
2022/06/17 12:10:35;;;;;;;5.05;3.03;;;;;;;;;;5062791;28;20049;-75
2022/06/17 12:13:13;;;;;;;6.10;3.30;;;;;;;;;;5053601;28;20039;-76
2022/06/17 12:15:45;;;;;;;4.43;2.65;;;;;;;;;;5051376;28;20501;-76
2022/06/17 12:18:34;;;;;;;6.05;2.92;;;;;;;;;;5042873;28;20496;-76
2022/06/17 12:21:19;;;;;;;5.50;2.78;;;;;;;;;;5064721;28;20056;-75
2022/06/17 12:23:51;;;;;;;7.57;2.60;;;;;;;;;;5069963;28;20054;-75
2022/06/17 12:26:20;;;;;;;6.18;3.22;;;;;;;;;;5056743;28;20093;-75
2022/06/17 12:28:48;;;;;;;7.72;3.30;;;;;;;;;;5069828;28;20036;-77
2022/06/17 12:31:33;;;;;;;6.65;2.97;;;;;;;;;;5065556;28;20041;-77
2022/06/17 12:34:05;;;;;;;5.38;2.70;;;;;;;;;;5053298;28;20043;-76
2022/06/17 12:36:38;;;;;;;5.00;2.75;;;;;;;;;;5054451;28;20046;-76
2022/06/17 12:39:21;;;;;;;5.93;2.90;;;;;;;;;;5071002;28;20389;-76
2022/06/17 12:41:52;;;;;;;4.93;2.97;;;;;;;;;;5053462;28;20040;-76
2022/06/17 12:44:22;;;;;;;6.35;2.72;;;;;;;;;;5070021;28;20446;-76
2022/06/17 12:46:52;;;;;;;5.00;2.53;;;;;;;;;;5057660;28;20500;-76
2022/06/17 12:55:18;;;;;;;6.88;3.00;;;;;;;;;;5072079;28;20044;-76
2022/06/17 12:57:53;;;;;;;5.05;2.90;;;;;;;;;;5071168;28;20079;-75
2022/06/17 13:00:22;;;;;;;6.47;2.90;;;;;;;;;;5074102;28;20515;-75
2022/06/17 13:03:07;;;;;;;8.32;3.55;;;;;;;;;;5074725;28;20050;-76
2022/06/17 13:05:44;;;;;;;5.13;3.03;;;;;;;;;;5060770;28;20041;-76
2022/06/17 13:08:10;;;;;;;5.82;2.83;;;;;;;;;;5071209;28;20044;-77
2022/06/17 13:10:39;;;;;;;4.75;2.70;;;;;;;;;;5074323;28;20101;-76
2022/06/17 13:13:13;;;;;;;4.50;2.60;;;;;;;;;;5073611;28;20036;-76
2022/06/17 13:15:45;;;;;;;8.27;3.00;;;;;;;;;;5041193;28;20083;-76
2022/06/17 13:18:18;;;;;;;5.50;2.60;;;;;;;;;;5073668;28;20132;-76
2022/06/17 13:20:48;;;;;;;5.78;2.90;;;;;;;;;;5054405;28;20047;-76
2022/06/17 13:23:17;;;;;;;9.32;3.03;;;;;;;;;;5057871;28;20442;-77
2022/06/17 13:25:52;;;;;;;7.55;2.85;;;;;;;;;;5062799;28;20386;-75
2022/06/17 13:28:22;;;;;;;8.95;3.00;;;;;;;;;;5069583;28;20516;-75
2022/06/17 13:30:54;;;;;;;5.45;2.70;;;;;;;;;;5048881;28;20051;-76
2022/06/17 13:33:44;;;;;;;7.78;3.40;;;;;;;;;;5073128;28;20033;-76
2022/06/17 13:36:13;;;;;;;4.45;2.90;;;;;;;;;;5063169;28;20041;-76
2022/06/17 13:38:45;;;;;;;7.50;3.80;;;;;;;;;;5065468;28;20063;-76
2022/06/17 13:41:24;;;;;;;6.10;2.40;;;;;;;;;;5066796;28;20051;-75
2022/06/17 13:43:55;;;;;;;6.43;2.92;;;;;;;;;;5047327;28;20079;-75
2022/06/17 13:46:31;;;;;;;5.28;2.70;;;;;;;;;;5067182;28;20553;-75
2022/06/17 13:49:16;;;;;;;5.68;2.90;;;;;;;;;;5055598;28;20404;-75
2022/06/17 13:51:42;;;;;;;7.10;2.83;;;;;;;;;;5068714;28;20033;-76
2022/06/17 13:54:08;;;;;;;5.43;2.90;;;;;;;;;;5072926;28;20067;-75
2022/06/17 13:56:46;;;;;;;5.70;3.10;;;;;;;;;;5052508;28;20041;-75
2022/06/17 13:59:30;;;;;;;5.18;2.67;;;;;;;;;;5056334;28;20044;-76
2022/06/17 14:02:15;;;;;;;5.80;2.63;;;;;;;;;;5068547;28;20079;-74
2022/06/17 14:04:59;;;;;;;5.07;2.97;;;;;;;;;;5071743;28;20135;-74
2022/06/17 14:07:44;;;;;;;4.80;2.73;;;;;;;;;;5068337;28;20295;-73
2022/06/17 14:10:29;;;;;;;7.82;2.50;;;;;;;;;;5070629;28;20075;-75
2022/06/17 14:12:55;;;;;;;4.37;2.50;;;;;;;;;;5052716;28;20033;-76
2022/06/17 14:15:29;;;;;;;5.80;2.55;;;;;;;;;;5072757;28;20049;-74
2022/06/17 14:17:57;;;;;;;5.40;2.35;;;;;;;;;;5069429;28;20081;-74
2022/06/17 14:20:35;;;;;;;4.35;2.80;;;;;;;;;;5072286;28;20067;-74
2022/06/17 14:23:08;;;;;;;3.40;2.10;;;;;;;;;;5053048;28;20049;-75
2022/06/17 14:25:46;;;;;;;3.75;2.15;;;;;;;;;;5072287;28;20081;-75
2022/06/17 14:28:31;;;;;;;5.80;2.22;;;;;;;;;;5050786;28;20041;-75
2022/06/17 14:31:09;;;;;;;4.88;2.40;;;;;;;;;;5065260;28;20040;-77
2022/06/17 14:33:41;;;;;;;4.07;2.30;;;;;;;;;;5058645;28;20511;-76
2022/06/17 14:36:14;;;;;;;4.78;2.50;;;;;;;;;;5072971;28;20123;-75
2022/06/17 14:38:44;;;;;;;5.10;2.33;;;;;;;;;;5041360;28;20087;-74
2022/06/17 14:44:18;;;;;;;7.63;2.60;;;;;;;;;;5055626;28;20033;-78
2022/06/17 14:47:03;;;;;;;5.05;2.17;;;;;;;;;;5069415;28;20086;-77
2022/06/17 14:49:49;;;;;;;5.53;2.20;;;;;;;;;;5065648;28;20039;-77
2022/06/17 14:52:27;;;;;;;28.92;15.40;;;;;;;;;;5029699;28;20037;-78
2022/06/17 14:55:00;;;;;;;9.32;5.97;;;;;;;;;;5033165;28;20038;-78
2022/06/17 14:57:27;;;;;;;12.05;9.07;;;;;;;;;;5033175;28;20501;-78
2022/06/17 15:00:22;;;;;;;8.57;4.43;;;;;;;;;;5047889;28;20045;-77
2022/06/17 15:02:50;;;;;;;15.43;2.80;;;;;;;;;;5035140;28;20140;-74
2022/06/17 15:05:25;;;;;;;4.47;2.53;;;;;;;;;;5051235;28;20463;-77
2022/06/17 15:07:51;;;;;;;;;;;;;;;;;;5056488;28;20111;-78
2022/06/17 15:10:17;;;;;;;6.25;2.40;;;;;;;;;;5050618;28;20003;-76
2022/06/17 15:12:58;;;;;;;6.55;3.60;;;;;;;;;;5052562;28;20036;-78
2022/06/17 15:15:26;;;;;;;6.63;2.33;;;;;;;;;;5068760;28;20128;-76